Weather at Arugam Bay SPB

Public forecast

Using degrees Celsius for public forecast. Weather courtesy of forecast.io.

Closest aviation weather report (METAR) to Arugam Bay SPB

Report is more than 2 hours old.

Closest report is Mattala Rajapaksa International Airport, 54.2 nm (100.4 km) SW.

2024/06/13 18:10 (retrieved 3 hours ago)

VCRI 131810Z 23007KT 9999 FEW018 27/26 Q1010 NOSIG

Closest aviation forecast (TAF) to Arugam Bay SPB

Closest forecast is Mattala Rajapaksa International Airport, 54.2 nm (100.4 km) SW.

2024/06/13 18:00 (retrieved 3 hours ago)

TAF VCRI 131700Z 1318/1424 23009KT 9999 FEW018 TX32/1307Z TN25/1400Z BECMG 1402/1404 25010G20KT